Time;durP1;ratioP1;P1;durP2;ratioP2;P2;SDS_P1;SDS_P2;PMS_P1;PMS_P2;Temp;Humidity;BMP_temperature;BMP_pressure;BME280_temperature;BME280_humidity;BME280_pressure;Samples;Min_cycle;Max_cycle;Signal;HPM_P1;HPM_P2
2022/05/14 00:01:06;;;;;;;12.90;10.40;;;19.70;99.90;;;;;;5045841;28;20501;-70
2022/05/14 00:03:35;;;;;;;13.07;10.48;;;19.70;99.90;;;;;;5048802;28;20067;-68
2022/05/14 00:06:06;;;;;;;10.57;9.30;;;19.80;99.90;;;;;;5047186;28;20037;-70
2022/05/14 00:08:33;;;;;;;11.50;9.52;;;19.80;99.90;;;;;;5051691;28;20823;-70
2022/05/14 00:13:45;;;;;;;12.00;10.40;;;20.00;99.90;;;;;;5051423;28;20028;-69
2022/05/14 00:16:14;;;;;;;11.45;10.23;;;20.20;99.90;;;;;;5053500;28;20025;-70
2022/05/14 00:18:42;;;;;;;10.02;9.02;;;20.20;99.90;;;;;;5050114;28;20013;-69
2022/05/14 00:21:09;;;;;;;12.80;10.18;;;20.20;99.90;;;;;;5051307;28;20416;-71
2022/05/14 00:23:36;;;;;;;11.38;9.32;;;20.20;99.90;;;;;;5052539;28;20079;-71
2022/05/14 00:26:04;;;;;;;10.48;9.38;;;20.10;99.90;;;;;;5051436;28;20458;-70
2022/05/14 00:28:32;;;;;;;10.82;8.88;;;20.00;99.90;;;;;;5051150;28;20028;-70
2022/05/14 00:30:59;;;;;;;11.82;9.48;;;20.10;99.90;;;;;;5053391;28;20032;-68
2022/05/14 00:33:26;;;;;;;11.52;9.85;;;20.10;99.90;;;;;;5052876;28;20413;-69
2022/05/14 00:35:53;;;;;;;11.13;9.88;;;20.20;99.90;;;;;;5051186;28;20025;-68
2022/05/14 00:38:20;;;;;;;12.88;10.77;;;20.30;99.90;;;;;;5050581;28;20435;-69
2022/05/14 00:40:55;;;;;;;11.90;10.77;;;20.40;99.90;;;;;;5050966;28;20017;-71
2022/05/14 00:43:22;;;;;;;12.18;11.00;;;20.50;99.90;;;;;;5049944;28;20044;-70
2022/05/14 00:46:16;;;;;;;13.38;11.98;;;20.60;99.90;;;;;;5050529;28;20036;-69
2022/05/14 00:48:45;;;;;;;11.55;10.27;;;20.60;99.90;;;;;;5042639;28;20367;-68
2022/05/14 00:51:29;;;;;;;12.73;11.02;;;20.60;99.90;;;;;;5046777;28;20336;-70
2022/05/14 00:54:05;;;;;;;12.50;9.82;;;20.60;99.90;;;;;;5044302;28;20028;-68
2022/05/14 00:56:37;;;;;;;10.98;9.88;;;20.70;99.90;;;;;;5041570;28;20120;-69
2022/05/14 00:59:17;;;;;;;11.82;9.30;;;20.90;99.90;;;;;;5051271;28;20025;-68
2022/05/14 01:01:45;;;;;;;13.65;11.43;;;20.90;99.90;;;;;;5049004;28;20013;-69
2022/05/14 01:04:14;;;;;;;10.27;9.23;;;21.10;99.90;;;;;;5053246;28;20044;-70
2022/05/14 01:06:47;;;;;;;11.32;10.23;;;21.10;99.90;;;;;;5056754;28;20523;-70
2022/05/14 01:09:14;;;;;;;11.10;9.95;;;21.20;99.90;;;;;;5050320;28;20072;-68
2022/05/14 01:11:41;;;;;;;11.02;9.93;;;21.20;99.90;;;;;;5050203;28;20504;-70
2022/05/14 01:14:08;;;;;;;11.52;10.32;;;21.30;99.90;;;;;;5050276;28;20043;-68
2022/05/14 01:16:35;;;;;;;11.57;9.95;;;21.50;99.90;;;;;;5048496;28;20434;-70
2022/05/14 01:19:03;;;;;;;11.45;10.30;;;21.80;99.90;;;;;;5050768;28;20039;-69
2022/05/14 01:22:12;;;;;;;11.02;9.65;;;22.00;99.90;;;;;;5046905;28;20033;-68
2022/05/14 01:27:51;;;;;;;11.05;9.80;;;22.00;99.90;;;;;;5049528;28;20028;-67
2022/05/14 01:30:18;;;;;;;11.52;10.35;;;22.10;99.90;;;;;;5049671;28;20052;-68
2022/05/14 01:33:04;;;;;;;11.52;10.43;;;22.20;99.90;;;;;;5039961;28;20488;-70
2022/05/14 01:35:34;;;;;;;10.27;8.82;;;22.30;99.90;;;;;;5047713;28;20116;-70
2022/05/14 01:38:01;;;;;;;9.93;9.02;;;22.40;99.90;;;;;;5028489;28;20084;-70
2022/05/14 01:40:29;;;;;;;8.68;7.88;;;22.60;99.90;;;;;;5035177;28;20028;-70
2022/05/14 01:42:56;;;;;;;8.88;7.97;;;22.80;99.90;;;;;;5047726;28;20076;-70
2022/05/14 01:45:25;;;;;;;8.38;7.65;;;23.10;99.90;;;;;;5047980;28;20025;-70
2022/05/14 01:47:52;;;;;;;8.05;7.35;;;23.50;99.90;;;;;;5038470;28;20033;-70
2022/05/14 01:50:20;;;;;;;9.18;8.27;;;23.70;99.90;;;;;;5046055;28;20021;-67
2022/05/14 01:52:47;;;;;;;8.77;7.72;;;24.10;99.90;;;;;;5041450;28;20027;-69
2022/05/14 01:55:13;;;;;;;8.52;7.70;;;24.20;99.90;;;;;;5045207;28;20100;-67
2022/05/14 01:57:40;;;;;;;9.43;8.43;;;24.40;99.90;;;;;;5040862;28;20029;-67
2022/05/14 02:00:09;;;;;;;9.18;8.27;;;24.20;99.90;;;;;;5028609;28;20469;-67
2022/05/14 02:02:36;;;;;;;8.40;7.60;;;24.30;99.90;;;;;;5042924;28;20035;-65
2022/05/14 02:05:05;;;;;;;8.23;7.43;;;24.00;99.90;;;;;;4343844;28;10000817;-67
2022/05/14 02:07:32;;;;;;;9.52;8.63;;;24.00;99.90;;;;;;5049524;28;20033;-69
2022/05/14 02:09:59;;;;;;;8.05;7.25;;;24.20;99.90;;;;;;5037356;28;20112;-67
2022/05/14 02:12:26;;;;;;;7.05;6.40;;;24.10;99.90;;;;;;5037168;28;20097;-72
2022/05/14 02:14:53;;;;;;;7.47;6.78;;;24.30;99.90;;;;;;5053468;28;20033;-72
2022/05/14 02:17:20;;;;;;;6.90;6.15;;;24.50;99.90;;;;;;5041453;28;20032;-73
2022/05/14 02:19:49;;;;;;;8.45;7.65;;;24.70;99.90;;;;;;5043109;28;20080;-71
2022/05/14 02:22:17;;;;;;;6.70;6.05;;;24.70;99.90;;;;;;5045463;28;20483;-71
2022/05/14 02:24:44;;;;;;;8.52;7.63;;;24.70;99.90;;;;;;5044183;28;20029;-71
2022/05/14 02:27:11;;;;;;;7.70;7.00;;;24.90;99.90;;;;;;5034238;28;20020;-72
2022/05/14 02:29:55;;;;;;;9.00;7.10;;;25.10;99.90;;;;;;5048627;28;20040;-72
2022/05/14 02:32:26;;;;;;;7.18;6.20;;;25.20;99.90;;;;;;5041413;28;20033;-69
2022/05/14 02:34:54;;;;;;;7.90;6.35;;;25.30;99.90;;;;;;5044451;28;20055;-68
2022/05/14 02:37:24;;;;;;;10.60;7.07;;;25.40;99.90;;;;;;5044458;28;20459;-73
2022/05/14 02:39:52;;;;;;;10.52;7.43;;;25.50;99.90;;;;;;5044972;28;20020;-69
2022/05/14 02:42:19;;;;;;;7.82;7.00;;;25.50;99.90;;;;;;5050584;28;20487;-69
2022/05/14 02:44:46;;;;;;;8.32;6.90;;;25.70;99.90;;;;;;5051090;28;20024;-73
2022/05/14 02:47:13;;;;;;;7.47;6.13;;;25.80;99.90;;;;;;5051271;28;20051;-74
2022/05/14 02:49:40;;;;;;;8.07;6.53;;;26.00;99.90;;;;;;5052840;28;20052;-72
2022/05/14 02:52:07;;;;;;;7.25;6.55;;;26.10;99.90;;;;;;5034915;28;20059;-73
2022/05/14 02:54:35;;;;;;;8.07;6.40;;;26.10;99.90;;;;;;5051259;28;20093;-75
2022/05/14 02:57:02;;;;;;;7.07;6.05;;;26.00;99.90;;;;;;5034684;28;20040;-74
2022/05/14 02:59:29;;;;;;;6.28;5.30;;;26.00;99.90;;;;;;5047812;28;20112;-73
2022/05/14 03:01:56;;;;;;;6.85;5.90;;;25.80;99.90;;;;;;5050177;28;20102;-74
2022/05/14 03:04:27;;;;;;;8.40;5.78;;;25.90;99.90;;;;;;5049412;28;20495;-71
2022/05/14 03:06:55;;;;;;;7.20;5.93;;;26.00;99.90;;;;;;5053021;28;20688;-75
2022/05/14 03:09:23;;;;;;;6.97;5.95;;;26.10;99.90;;;;;;5051985;28;20020;-75
2022/05/14 03:11:50;;;;;;;6.85;5.72;;;26.30;99.90;;;;;;5056196;28;20041;-73
2022/05/14 03:14:17;;;;;;;8.57;6.65;;;26.40;99.90;;;;;;5053925;28;20028;-70
2022/05/14 03:16:45;;;;;;;8.48;5.22;;;26.40;99.90;;;;;;5049390;28;20036;-72
2022/05/14 03:19:12;;;;;;;6.50;5.20;;;26.40;99.90;;;;;;5051604;28;20025;-67
2022/05/14 03:21:39;;;;;;;5.05;4.55;;;26.20;99.90;;;;;;5054820;28;20471;-72
2022/05/14 03:24:07;;;;;;;6.57;5.00;;;26.10;99.90;;;;;;5052447;28;20108;-73
2022/05/14 03:26:34;;;;;;;7.15;5.35;;;26.20;99.90;;;;;;5057581;28;20555;-73
2022/05/14 03:29:01;;;;;;;5.85;4.90;;;26.50;99.90;;;;;;5057868;28;20033;-69
2022/05/14 03:31:28;;;;;;;7.75;6.20;;;26.70;99.90;;;;;;5054827;28;20025;-69
2022/05/14 03:33:55;;;;;;;5.85;5.00;;;26.90;99.90;;;;;;5056849;28;20968;-68
2022/05/14 03:36:22;;;;;;;6.47;5.18;;;27.00;99.90;;;;;;5032608;28;20064;-71
2022/05/14 03:38:49;;;;;;;5.45;4.55;;;27.10;99.90;;;;;;5029977;28;20041;-74
2022/05/14 03:41:17;;;;;;;9.05;5.50;;;27.30;99.90;;;;;;5028650;28;20393;-75
2022/05/14 03:43:44;;;;;;;7.00;5.20;;;27.50;99.90;;;;;;5034484;28;20388;-72
2022/05/14 03:46:12;;;;;;;7.38;5.43;;;27.40;99.90;;;;;;5004341;28;20036;-69
2022/05/14 03:48:40;;;;;;;7.63;5.65;;;27.30;99.90;;;;;;5036118;28;20478;-72
2022/05/14 03:51:08;;;;;;;5.22;4.57;;;27.40;99.90;;;;;;5032605;28;20457;-68
2022/05/14 03:53:37;;;;;;;7.05;5.75;;;27.50;99.90;;;;;;5036423;28;20091;-75
2022/05/14 03:56:05;;;;;;;3.83;3.00;;;27.50;99.90;;;;;;5032090;28;20037;-71
2022/05/14 03:58:33;;;;;;;4.30;3.85;;;27.60;99.90;;;;;;5032838;28;20025;-74
2022/05/14 04:01:01;;;;;;;3.88;2.90;;;27.70;99.90;;;;;;5034834;28;20021;-69
2022/05/14 04:03:28;;;;;;;3.65;3.08;;;27.80;99.90;;;;;;5036456;28;20476;-68
2022/05/14 04:05:55;;;;;;;4.05;3.00;;;28.00;99.90;;;;;;5037670;28;20128;-72
2022/05/14 04:08:22;;;;;;;3.75;3.08;;;27.90;99.90;;;;;;5036808;28;20048;-72
2022/05/14 04:10:49;;;;;;;3.50;2.67;;;28.10;99.90;;;;;;5037444;28;20035;-72
2022/05/14 04:13:17;;;;;;;3.20;2.67;;;28.20;99.90;;;;;;5030374;28;20033;-68
2022/05/14 04:15:44;;;;;;;2.92;2.67;;;28.20;99.90;;;;;;5038136;28;20071;-74
2022/05/14 04:18:11;;;;;;;3.75;2.50;;;28.20;99.90;;;;;;5036506;28;20032;-73
2022/05/14 04:20:38;;;;;;;4.93;3.35;;;28.30;99.90;;;;;;5035461;28;20030;-68
2022/05/14 04:23:07;;;;;;;5.90;4.95;;;28.20;99.90;;;;;;5036483;28;20032;-67
2022/05/14 04:25:34;;;;;;;4.78;3.00;;;28.20;99.90;;;;;;5035883;28;20045;-75
2022/05/14 04:28:01;;;;;;;4.35;3.95;;;28.10;99.90;;;;;;5036045;28;20017;-69
2022/05/14 04:30:28;;;;;;;6.68;5.10;;;28.20;99.90;;;;;;5040872;28;20474;-69
2022/05/14 04:32:55;;;;;;;4.70;4.30;;;28.10;99.90;;;;;;5036062;28;20017;-74
2022/05/14 04:35:23;;;;;;;8.13;5.05;;;28.00;99.90;;;;;;5036161;28;20016;-69
2022/05/14 04:37:50;;;;;;;5.35;4.70;;;27.90;99.90;;;;;;5039721;28;20049;-69
2022/05/14 04:40:18;;;;;;;5.30;4.43;;;27.80;99.90;;;;;;5054570;28;20024;-68
2022/05/14 04:42:45;;;;;;;5.32;4.88;;;27.80;99.90;;;;;;5056722;28;20481;-74
2022/05/14 04:45:13;;;;;;;6.80;4.65;;;27.70;99.90;;;;;;5055880;28;20028;-69
2022/05/14 04:47:42;;;;;;;6.28;5.28;;;27.50;99.90;;;;;;5056796;28;20131;-72
2022/05/14 04:50:10;;;;;;;5.50;4.60;;;27.50;99.90;;;;;;5054577;28;20033;-69
2022/05/14 04:52:38;;;;;;;4.88;4.25;;;27.70;99.90;;;;;;5052884;28;20081;-73
2022/05/14 04:55:06;;;;;;;4.47;4.03;;;27.70;99.90;;;;;;5047381;28;20546;-69
2022/05/14 04:57:34;;;;;;;5.40;4.30;;;27.80;99.90;;;;;;5048901;28;20470;-71
2022/05/14 05:00:01;;;;;;;4.15;3.78;;;27.90;99.90;;;;;;5045328;28;20032;-72
2022/05/14 05:05:14;;;;;;;4.50;3.67;;;28.10;99.90;;;;;;5052683;28;20122;-76
2022/05/14 05:07:41;;;;;;;4.05;3.72;;;28.30;99.90;;;;;;5055411;28;20028;-70
2022/05/14 05:10:08;;;;;;;5.05;3.45;;;28.40;99.90;;;;;;5052804;28;20025;-70
2022/05/14 05:12:36;;;;;;;5.57;4.20;;;28.50;99.90;;;;;;5054084;28;20063;-78
2022/05/14 05:15:03;;;;;;;4.32;3.65;;;28.70;99.90;;;;;;5050571;28;20040;-71
2022/05/14 05:17:30;;;;;;;4.85;3.58;;;28.70;99.90;;;;;;5047931;28;20496;-74
2022/05/14 05:19:57;;;;;;;4.20;3.58;;;28.90;99.90;;;;;;5052948;28;20036;-74
2022/05/14 05:22:25;;;;;;;3.95;3.60;;;29.20;99.90;;;;;;5053802;28;20025;-73
2022/05/14 05:24:52;;;;;;;5.65;3.25;;;29.50;99.90;;;;;;5058752;28;20025;-68
2022/05/14 05:27:19;;;;;;;3.63;3.28;;;29.80;99.90;;;;;;5050998;28;20437;-72
2022/05/14 05:29:47;;;;;;;3.83;2.83;;;30.00;99.90;;;;;;5059797;28;20390;-70
2022/05/14 05:32:14;;;;;;;4.85;2.42;;;30.20;99.90;;;;;;5057174;28;20910;-72
2022/05/14 05:34:41;;;;;;;3.20;2.08;;;30.20;99.90;;;;;;5055619;28;20238;-73
2022/05/14 05:37:08;;;;;;;2.63;1.98;;;30.10;99.90;;;;;;5055893;28;20055;-72
2022/05/14 05:39:35;;;;;;;2.60;1.70;;;30.00;99.90;;;;;;5050601;28;20402;-71
2022/05/14 05:42:03;;;;;;;2.47;2.13;;;30.00;99.90;;;;;;5050213;28;20035;-70
2022/05/14 05:44:30;;;;;;;2.25;1.80;;;30.20;99.90;;;;;;5048522;28;20043;-73
2022/05/14 05:46:57;;;;;;;2.50;1.58;;;30.10;99.90;;;;;;5046552;28;20098;-75
2022/05/14 05:49:24;;;;;;;2.72;1.60;;;30.20;99.90;;;;;;5052209;28;20105;-77
2022/05/14 05:51:51;;;;;;;3.03;1.50;;;29.90;99.90;;;;;;5053415;28;20044;-75
2022/05/14 05:57:04;;;;;;;3.05;1.75;;;28.70;99.90;;;;;;5049669;28;20532;-75
2022/05/14 05:59:32;;;;;;;3.00;1.58;;;28.30;99.90;;;;;;5049818;28;20467;-72
2022/05/14 06:02:00;;;;;;;2.95;1.25;;;27.80;99.90;;;;;;5057887;28;20025;-74
2022/05/14 06:04:27;;;;;;;2.35;1.50;;;27.60;99.90;;;;;;5042940;28;20029;-73
2022/05/14 06:06:54;;;;;;;2.47;1.63;;;27.40;99.90;;;;;;5048065;28;20028;-73
2022/05/14 06:09:25;;;;;;;3.95;1.80;;;27.30;99.90;;;;;;5043795;28;20025;-73
2022/05/14 06:11:53;;;;;;;2.70;1.48;;;27.20;99.90;;;;;;5040154;28;20032;-73
2022/05/14 06:14:21;;;;;;;6.20;2.78;;;27.00;99.90;;;;;;5050347;28;20052;-71
2022/05/14 06:16:49;;;;;;;4.07;3.35;;;27.00;99.90;;;;;;5044293;28;20028;-71
2022/05/14 06:19:16;;;;;;;7.28;4.38;;;26.80;99.90;;;;;;5048587;28;20025;-73
2022/05/14 06:21:43;;;;;;;5.63;4.45;;;26.50;99.90;;;;;;5042929;28;20024;-70
2022/05/14 06:24:10;;;;;;;5.20;4.68;;;26.30;99.90;;;;;;5051548;28;20763;-74
2022/05/14 06:26:38;;;;;;;5.25;4.78;;;26.30;99.90;;;;;;5051810;28;20326;-71
2022/05/14 06:29:06;;;;;;;5.68;5.10;;;26.10;99.90;;;;;;5039718;28;20502;-72
2022/05/14 06:31:34;;;;;;;6.18;5.60;;;26.00;99.90;;;;;;5050855;28;20060;-74
2022/05/14 06:34:01;;;;;;;5.13;4.63;;;26.00;99.90;;;;;;5054979;28;21216;-70
2022/05/14 06:36:28;;;;;;;5.55;5.05;;;26.20;99.90;;;;;;5053209;28;20024;-74
2022/05/14 06:38:56;;;;;;;6.13;5.32;;;26.30;99.90;;;;;;5051777;28;20797;-70
2022/05/14 06:41:23;;;;;;;5.88;4.90;;;26.30;99.90;;;;;;5053756;28;20077;-71
2022/05/14 06:43:51;;;;;;;5.38;4.45;;;26.30;99.90;;;;;;5045269;28;20025;-73
2022/05/14 06:46:19;;;;;;;5.50;4.90;;;26.10;99.90;;;;;;5049494;28;20040;-70
2022/05/14 06:48:46;;;;;;;7.20;6.30;;;25.80;99.90;;;;;;5053522;28;20446;-74
2022/05/14 06:51:22;;;;;;;6.90;5.60;;;25.40;99.90;;;;;;5047367;28;20031;-74
2022/05/14 06:53:51;;;;;;;7.47;6.57;;;25.00;99.90;;;;;;5052715;28;20029;-72
2022/05/14 06:56:20;;;;;;;5.50;5.00;;;24.60;99.90;;;;;;5043945;28;20040;-72
2022/05/14 06:58:50;;;;;;;6.45;5.78;;;24.20;99.90;;;;;;5051110;28;20445;-74
2022/05/14 07:01:19;;;;;;;7.45;6.80;;;24.20;99.90;;;;;;5047167;28;20499;-72
2022/05/14 07:06:39;;;;;;;10.07;8.55;;;23.60;99.90;;;;;;5047095;28;20445;-72
2022/05/14 07:09:10;;;;;;;9.05;8.10;;;23.30;99.90;;;;;;5054120;28;20025;-74
2022/05/14 07:11:40;;;;;;;9.38;6.50;;;23.10;99.90;;;;;;5053021;28;20021;-73
2022/05/14 07:14:07;;;;;;;7.57;5.78;;;23.00;99.90;;;;;;5055602;28;20039;-74
2022/05/14 07:16:35;;;;;;;8.13;7.20;;;22.80;99.90;;;;;;5046712;28;20033;-73
2022/05/14 07:19:02;;;;;;;9.40;7.38;;;22.80;99.90;;;;;;5042864;28;20367;-73
2022/05/14 07:21:29;;;;;;;7.97;7.10;;;22.80;99.90;;;;;;5052630;28;20079;-71
2022/05/14 07:23:56;;;;;;;7.78;6.85;;;22.80;99.90;;;;;;5048192;28;20029;-71
2022/05/14 07:26:23;;;;;;;8.75;7.18;;;22.70;99.90;;;;;;5052159;28;20057;-71
2022/05/14 07:28:51;;;;;;;7.97;7.25;;;22.70;99.90;;;;;;5055474;28;20028;-72
2022/05/14 07:31:18;;;;;;;8.23;6.75;;;22.60;99.90;;;;;;5052276;28;20080;-70
2022/05/14 07:33:45;;;;;;;8.25;7.30;;;22.60;99.90;;;;;;5048110;28;20095;-72
2022/05/14 07:36:16;;;;;;;8.45;7.30;;;22.60;99.90;;;;;;5048379;28;20028;-74
2022/05/14 07:38:44;;;;;;;9.65;7.10;;;22.60;99.90;;;;;;5049593;28;20049;-71
2022/05/14 07:41:13;;;;;;;8.52;7.63;;;22.50;99.90;;;;;;5051802;28;20466;-65
2022/05/14 07:43:42;;;;;;;8.63;7.65;;;22.40;99.90;;;;;;5050022;28;20025;-73
2022/05/14 07:46:15;;;;;;;8.63;7.53;;;22.30;99.90;;;;;;5049959;28;20112;-65
2022/05/14 07:48:43;;;;;;;9.70;7.47;;;22.30;99.90;;;;;;5047656;28;20867;-65
2022/05/14 07:51:11;;;;;;;9.93;8.48;;;22.30;99.90;;;;;;5047985;28;20509;-65
2022/05/14 07:53:39;;;;;;;9.52;8.07;;;22.20;99.90;;;;;;5050323;28;20631;-67
2022/05/14 07:56:09;;;;;;;8.55;7.65;;;22.20;99.90;;;;;;5046567;28;20034;-66
2022/05/14 07:58:38;;;;;;;9.07;7.95;;;22.20;99.90;;;;;;5044438;28;20017;-73
2022/05/14 08:01:05;;;;;;;8.63;7.82;;;22.00;99.90;;;;;;5043429;28;20111;-70
2022/05/14 08:03:33;;;;;;;9.60;8.52;;;21.90;99.90;;;;;;5046091;28;20056;-71
2022/05/14 08:06:01;;;;;;;9.05;8.18;;;21.80;99.90;;;;;;5047226;28;20457;-72
2022/05/14 08:08:28;;;;;;;10.43;9.32;;;21.70;99.90;;;;;;5047042;28;20038;-73
2022/05/14 08:10:57;;;;;;;11.18;10.00;;;21.60;99.90;;;;;;5044072;28;20574;-71
2022/05/14 08:13:25;;;;;;;11.23;10.07;;;21.60;99.90;;;;;;5049986;28;20458;-65
2022/05/14 08:15:54;;;;;;;13.57;10.50;;;21.70;99.90;;;;;;5046645;28;20501;-65
2022/05/14 08:18:21;;;;;;;10.48;8.38;;;21.60;99.90;;;;;;5050017;28;20316;-65
2022/05/14 08:20:51;;;;;;;11.80;10.13;;;21.50;99.90;;;;;;5047209;28;20458;-71
2022/05/14 08:26:06;;;;;;;13.50;11.13;;;21.70;99.90;;;;;;5045154;28;20040;-66
2022/05/14 08:28:34;;;;;;;10.32;9.32;;;21.80;99.90;;;;;;5050417;28;20028;-65
2022/05/14 08:31:01;;;;;;;11.18;10.07;;;21.70;99.90;;;;;;5049468;28;20463;-72
2022/05/14 08:33:29;;;;;;;14.85;11.60;;;21.60;99.90;;;;;;5051739;28;20140;-73
2022/05/14 08:35:56;;;;;;;13.27;10.65;;;21.70;99.90;;;;;;5051117;28;20376;-64
2022/05/14 08:38:23;;;;;;;12.32;10.77;;;21.60;99.90;;;;;;5038449;28;20041;-72
2022/05/14 08:41:00;;;;;;;14.25;10.93;;;21.60;99.90;;;;;;5048953;28;20098;-65
2022/05/14 08:43:53;;;;;;;17.55;13.80;;;21.50;99.90;;;;;;5048422;28;20470;-66
2022/05/14 08:46:23;;;;;;;11.15;10.05;;;21.50;99.90;;;;;;5044353;28;20056;-74
2022/05/14 08:48:55;;;;;;;12.30;11.00;;;21.50;99.90;;;;;;5053049;28;20087;-73
2022/05/14 08:51:26;;;;;;;12.87;11.30;;;21.50;99.90;;;;;;5053450;28;20028;-65
2022/05/14 08:53:53;;;;;;;12.98;11.43;;;21.40;99.90;;;;;;5049748;28;20032;-74
2022/05/14 08:56:29;;;;;;;11.88;9.32;;;21.40;99.90;;;;;;5050469;28;20119;-75
2022/05/14 08:58:56;;;;;;;11.35;10.15;;;21.30;99.90;;;;;;5049462;28;20029;-66
2022/05/14 09:01:26;;;;;;;11.63;9.02;;;21.40;99.90;;;;;;5055612;28;20020;-76
2022/05/14 09:03:54;;;;;;;10.35;8.70;;;21.40;99.90;;;;;;5047856;28;20040;-72
2022/05/14 09:06:21;;;;;;;11.68;9.48;;;21.30;99.90;;;;;;5051303;28;20097;-64
2022/05/14 09:08:49;;;;;;;10.40;9.32;;;21.10;99.90;;;;;;5051219;28;20028;-75
2022/05/14 09:11:28;;;;;;;11.15;9.60;;;21.10;99.90;;;;;;5055541;28;20033;-73
2022/05/14 09:13:58;;;;;;;10.13;8.50;;;21.00;99.90;;;;;;5051593;28;20496;-72
2022/05/14 09:16:30;;;;;;;12.75;9.18;;;20.80;99.90;;;;;;5051332;28;20462;-65
2022/05/14 09:18:57;;;;;;;10.60;8.80;;;20.80;99.90;;;;;;5038988;28;20032;-66
2022/05/14 09:21:30;;;;;;;10.75;9.65;;;20.70;99.90;;;;;;5041657;28;20021;-70
2022/05/14 09:24:17;;;;;;;12.52;8.68;;;20.70;99.90;;;;;;5045127;28;20017;-68
2022/05/14 09:26:45;;;;;;;10.70;9.52;;;20.60;99.90;;;;;;5045931;28;20025;-67
2022/05/14 09:29:23;;;;;;;11.07;9.98;;;20.60;99.90;;;;;;5054616;28;20704;-71
2022/05/14 09:32:06;;;;;;;10.75;9.52;;;20.80;99.90;;;;;;5044395;28;20120;-68
2022/05/14 09:34:35;;;;;;;13.77;10.55;;;20.70;99.90;;;;;;5037483;28;20501;-68
2022/05/14 09:37:11;;;;;;;15.13;13.75;;;20.70;99.90;;;;;;5043864;28;20052;-69
2022/05/14 09:39:39;;;;;;;16.27;14.55;;;20.60;99.90;;;;;;5040831;28;20083;-71
2022/05/14 09:42:21;;;;;;;14.65;13.20;;;20.50;99.90;;;;;;5057698;28;20624;-74
2022/05/14 09:44:52;;;;;;;15.05;13.35;;;20.50;99.90;;;;;;5052121;28;21082;-74
2022/05/14 09:47:28;;;;;;;22.95;20.25;;;20.60;99.90;;;;;;5039923;28;20044;-70
2022/05/14 09:50:02;;;;;;;33.03;29.40;;;20.60;99.90;;;;;;5046794;28;20060;-69
2022/05/14 09:52:35;;;;;;;56.53;43.35;;;20.50;99.90;;;;;;5044275;28;20060;-70
2022/05/14 09:55:08;;;;;;;41.03;35.20;;;20.50;99.90;;;;;;5051623;28;20025;-70
2022/05/14 09:58:08;;;;;;;67.32;52.05;;;20.50;99.90;;;;;;5038187;28;20102;-70
2022/05/14 10:00:58;;;;;;;51.38;37.75;;;20.40;99.90;;;;;;5047592;28;20025;-74
2022/05/14 10:03:45;;;;;;;38.78;28.27;;;20.40;99.90;;;;;;5049700;28;20029;-75
2022/05/14 10:06:28;;;;;;;23.30;19.70;;;20.40;99.90;;;;;;5042557;28;20056;-69
2022/05/14 10:09:28;;;;;;;19.50;15.18;;;20.30;99.90;;;;;;5052473;28;20524;-69
2022/05/14 10:12:17;;;;;;;22.27;17.67;;;20.30;99.90;;;;;;5040202;28;20040;-70
2022/05/14 10:15:01;;;;;;;15.75;14.07;;;20.30;99.90;;;;;;5056307;28;20111;-70
2022/05/14 10:17:56;;;;;;;16.90;14.85;;;20.20;99.90;;;;;;5048897;28;20020;-71
2022/05/14 10:20:48;;;;;;;15.25;12.73;;;20.10;99.90;;;;;;5041851;28;20027;-71
2022/05/14 10:27:04;;;;;;;13.90;10.40;;;20.10;99.90;;;;;;5017953;28;20959;-68
2022/05/14 10:29:36;;;;;;;14.38;11.60;;;20.10;99.90;;;;;;5017693;28;20506;-72
2022/05/14 10:32:25;;;;;;;17.50;12.98;;;20.20;99.90;;;;;;5019287;28;20069;-72
2022/05/14 10:35:07;;;;;;;17.30;13.98;;;20.10;99.90;;;;;;5018850;28;20064;-68
2022/05/14 10:37:40;;;;;;;19.25;14.90;;;20.20;99.90;;;;;;5054522;22;20054;-67
2022/05/14 10:40:07;;;;;;;15.93;14.32;;;20.30;99.90;;;;;;5030532;28;20036;-69
2022/05/14 10:42:56;;;;;;;18.30;15.93;;;20.20;99.90;;;;;;5049352;28;20032;-71
2022/05/14 10:45:45;;;;;;;15.18;13.68;;;20.30;99.90;;;;;;5045298;28;20550;-70
2022/05/14 10:48:42;;;;;;;17.25;14.07;;;20.30;99.90;;;;;;5049128;28;20097;-69
2022/05/14 10:51:15;;;;;;;17.20;13.55;;;20.30;99.90;;;;;;4980401;28;20065;-69
2022/05/14 10:53:46;;;;;;;19.00;14.80;;;20.30;99.90;;;;;;4982131;28;20057;-68
2022/05/14 10:56:25;;;;;;;18.50;15.98;;;20.20;99.90;;;;;;4979461;28;20053;-70
2022/05/14 10:59:10;;;;;;;18.40;14.25;;;20.20;99.90;;;;;;4979283;28;20312;-68
2022/05/14 11:02:06;;;;;;;19.00;16.13;;;20.20;99.90;;;;;;4980745;28;20103;-70
2022/05/14 11:04:53;;;;;;;16.83;13.38;;;20.10;99.90;;;;;;4936118;29;20039;-72
2022/05/14 11:07:36;;;;;;;17.15;13.93;;;20.00;99.90;;;;;;4934979;29;20043;-67
2022/05/14 11:10:20;;;;;;;17.33;14.35;;;19.80;99.90;;;;;;4934962;29;20939;-65
2022/05/14 11:12:50;;;;;;;17.20;13.80;;;19.70;99.90;;;;;;4928819;28;20090;-71
2022/05/14 11:15:20;;;;;;;17.92;14.60;;;19.50;99.90;;;;;;4927536;29;20039;-68
2022/05/14 11:18:01;;;;;;;19.13;15.40;;;19.40;99.90;;;;;;4931763;28;20313;-68
2022/05/14 11:20:28;;;;;;;17.33;15.25;;;19.40;99.90;;;;;;4930582;29;20095;-65
2022/05/14 11:23:08;;;;;;;21.08;17.05;;;19.30;99.90;;;;;;4937399;29;20023;-66
2022/05/14 11:25:35;;;;;;;18.65;15.00;;;19.30;99.90;;;;;;4933486;29;20552;-68
2022/05/14 11:28:17;;;;;;;18.95;16.92;;;19.40;99.90;;;;;;4954313;28;20038;-69
2022/05/14 11:30:50;;;;;;;18.00;16.05;;;19.40;99.90;;;;;;4975198;28;20576;-68
2022/05/14 11:33:28;;;;;;;19.70;17.58;;;19.30;99.90;;;;;;4966866;28;20485;-69
2022/05/14 11:36:12;;;;;;;20.35;17.38;;;19.40;99.90;;;;;;4969513;28;20057;-68
2022/05/14 11:38:44;;;;;;;20.83;16.30;;;19.30;99.90;;;;;;4971636;28;20062;-69
2022/05/14 11:41:14;;;;;;;22.43;17.60;;;19.20;99.90;;;;;;5018398;28;20041;-66
2022/05/14 11:43:46;;;;;;;19.13;17.10;;;19.20;99.90;;;;;;5051524;28;20021;-69
2022/05/14 11:46:31;;;;;;;21.55;16.17;;;19.10;99.90;;;;;;5057554;28;20115;-71
2022/05/14 11:49:37;;;;;;;22.85;17.60;;;19.00;99.90;;;;;;5036291;28;20542;-64
2022/05/14 11:52:11;;;;;;;24.05;18.92;;;18.90;99.90;;;;;;5050692;28;20028;-67
2022/05/14 11:54:48;;;;;;;23.50;18.90;;;19.00;99.90;;;;;;5050546;28;20040;-66
2022/05/14 11:57:41;;;;;;;26.35;20.10;;;19.00;99.90;;;;;;5043721;28;20036;-68
2022/05/14 12:00:15;;;;;;;28.92;20.40;;;19.00;99.90;;;;;;5041376;28;20099;-66
2022/05/14 12:02:51;;;;;;;25.83;20.10;;;19.00;99.90;;;;;;5051661;28;20028;-68
2022/05/14 12:05:36;;;;;;;25.98;20.30;;;18.90;99.90;;;;;;5055466;28;20600;-66
2022/05/14 12:08:21;;;;;;;26.83;20.17;;;18.90;99.90;;;;;;5059063;28;20029;-66
2022/05/14 12:11:17;;;;;;;28.05;18.92;;;18.80;99.90;;;;;;5043859;28;20079;-68
2022/05/14 12:14:06;;;;;;;23.90;20.00;;;18.80;99.90;;;;;;5051739;28;20558;-69
2022/05/14 12:16:42;;;;;;;23.55;17.75;;;18.70;99.90;;;;;;5058506;28;20131;-66
2022/05/14 12:19:26;;;;;;;22.92;17.85;;;18.60;99.90;;;;;;5055069;28;20466;-68
2022/05/14 12:22:02;;;;;;;24.48;16.50;;;18.50;99.90;;;;;;5054861;28;20029;-70
2022/05/14 12:24:39;;;;;;;24.05;18.48;;;18.40;99.90;;;;;;5055035;28;20104;-67
2022/05/14 12:27:18;;;;;;;25.33;18.35;;;18.30;99.90;;;;;;5058171;28;20685;-65
2022/05/14 12:30:00;;;;;;;28.55;19.65;;;18.30;99.90;;;;;;5057397;28;20500;-65
2022/05/14 12:35:24;;;;;;;27.73;20.48;;;18.20;99.90;;;;;;5053839;28;20044;-69
2022/05/14 12:37:57;;;;;;;27.90;21.58;;;18.20;99.90;;;;;;5039239;28;20090;-66
2022/05/14 12:40:35;;;;;;;35.53;24.27;;;18.20;99.90;;;;;;5056339;28;20052;-65
2022/05/14 12:43:08;;;;;;;31.92;23.10;;;18.20;99.90;;;;;;5060228;28;20020;-69
2022/05/14 12:45:50;;;;;;;30.83;23.38;;;18.30;99.90;;;;;;5056815;28;20052;-67
2022/05/14 12:48:17;;;;;;;31.60;23.33;;;18.20;99.90;;;;;;5061066;28;20043;-68
2022/05/14 12:50:56;;;;;;;36.10;25.75;;;18.20;99.90;;;;;;5055227;28;20048;-69
2022/05/14 12:53:35;;;;;;;31.60;21.85;;;18.20;99.90;;;;;;5055230;28;20025;-66
2022/05/14 12:56:05;;;;;;;29.75;21.85;;;18.10;99.90;;;;;;5058630;28;20036;-65
2022/05/14 12:58:39;;;;;;;30.40;21.42;;;18.10;99.90;;;;;;5057999;28;20115;-66
2022/05/14 13:01:07;;;;;;;33.08;20.48;;;18.10;99.90;;;;;;5058989;28;20066;-69
2022/05/14 13:03:38;;;;;;;33.22;21.58;;;18.00;99.90;;;;;;5058533;28;20059;-68
2022/05/14 13:06:09;;;;;;;33.22;23.48;;;17.90;99.90;;;;;;5059783;28;20016;-68
2022/05/14 13:08:42;;;;;;;33.00;21.45;;;17.90;99.90;;;;;;5057642;28;20179;-68
2022/05/14 13:11:20;;;;;;;28.00;21.02;;;17.90;99.90;;;;;;5055699;28;20643;-65
2022/05/14 13:13:49;;;;;;;34.33;23.70;;;17.90;99.90;;;;;;5056558;28;20021;-67
2022/05/14 13:16:25;;;;;;;35.03;23.50;;;17.90;99.90;;;;;;5059507;28;20491;-67
2022/05/14 13:18:54;;;;;;;38.05;24.55;;;17.90;99.90;;;;;;5057938;28;20032;-66
2022/05/14 13:21:32;;;;;;;33.03;23.38;;;18.10;99.90;;;;;;5058450;28;20467;-66
2022/05/14 13:24:06;;;;;;;32.00;21.85;;;18.00;99.90;;;;;;5057094;28;20016;-69